sensor_id;sensor_type;location;lat;lon;timestamp;temperature;humidity
3566;DHT22;1797;51.844;7.684;2023-06-19T00:01:43;23.40;99.90
3566;DHT22;1797;51.844;7.684;2023-06-19T00:04:10;23.40;99.90
3566;DHT22;1797;51.844;7.684;2023-06-19T00:06:36;23.40;99.90
3566;DHT22;1797;51.844;7.684;2023-06-19T00:09:02;23.40;99.90
3566;DHT22;1797;51.844;7.684;2023-06-19T00:11:28;23.30;99.90
3566;DHT22;1797;51.844;7.684;2023-06-19T00:13:53;23.30;99.90
3566;DHT22;1797;51.844;7.684;2023-06-19T00:16:19;23.30;99.90
3566;DHT22;1797;51.844;7.684;2023-06-19T00:18:45;23.30;99.90
3566;DHT22;1797;51.844;7.684;2023-06-19T00:21:11;23.20;99.90
3566;DHT22;1797;51.844;7.684;2023-06-19T00:23:37;23.20;99.90
3566;DHT22;1797;51.844;7.684;2023-06-19T00:26:03;23.20;99.90
3566;DHT22;1797;51.844;7.684;2023-06-19T00:28:29;23.30;99.90
3566;DHT22;1797;51.844;7.684;2023-06-19T00:30:55;23.20;99.90
3566;DHT22;1797;51.844;7.684;2023-06-19T00:33:21;23.20;99.90
3566;DHT22;1797;51.844;7.684;2023-06-19T00:35:47;23.10;99.90
3566;DHT22;1797;51.844;7.684;2023-06-19T00:38:13;23.10;99.90
3566;DHT22;1797;51.844;7.684;2023-06-19T00:40:39;23.10;99.90
3566;DHT22;1797;51.844;7.684;2023-06-19T00:43:06;23.10;99.90
3566;DHT22;1797;51.844;7.684;2023-06-19T00:45:31;23.10;99.90
3566;DHT22;1797;51.844;7.684;2023-06-19T00:47:58;23.10;99.90
3566;DHT22;1797;51.844;7.684;2023-06-19T00:50:28;23.10;99.90
3566;DHT22;1797;51.844;7.684;2023-06-19T00:52:55;23.10;99.90
3566;DHT22;1797;51.844;7.684;2023-06-19T00:55:21;23.00;99.90
3566;DHT22;1797;51.844;7.684;2023-06-19T00:57:49;23.00;99.90
3566;DHT22;1797;51.844;7.684;2023-06-19T01:00:16;23.00;99.90
3566;DHT22;1797;51.844;7.684;2023-06-19T01:02:43;23.00;99.90
3566;DHT22;1797;51.844;7.684;2023-06-19T01:05:08;23.00;99.90
3566;DHT22;1797;51.844;7.684;2023-06-19T01:10:18;23.00;99.90
3566;DHT22;1797;51.844;7.684;2023-06-19T01:13:16;22.90;1.00
3566;DHT22;1797;51.844;7.684;2023-06-19T01:15:46;22.90;1.00
3566;DHT22;1797;51.844;7.684;2023-06-19T01:18:13;22.90;1.00
3566;DHT22;1797;51.844;7.684;2023-06-19T01:20:38;22.90;1.00
3566;DHT22;1797;51.844;7.684;2023-06-19T01:23:08;22.80;1.00
3566;DHT22;1797;51.844;7.684;2023-06-19T01:25:34;22.70;1.00
3566;DHT22;1797;51.844;7.684;2023-06-19T01:28:01;22.70;1.00
3566;DHT22;1797;51.844;7.684;2023-06-19T01:30:29;22.60;1.00
3566;DHT22;1797;51.844;7.684;2023-06-19T01:33:12;22.60;1.00
3566;DHT22;1797;51.844;7.684;2023-06-19T01:35:41;22.50;1.00
3566;DHT22;1797;51.844;7.684;2023-06-19T01:38:08;22.40;1.00
3566;DHT22;1797;51.844;7.684;2023-06-19T01:40:34;22.40;1.00
3566;DHT22;1797;51.844;7.684;2023-06-19T01:43:01;22.40;1.00
3566;DHT22;1797;51.844;7.684;2023-06-19T01:45:28;22.30;1.00
3566;DHT22;1797;51.844;7.684;2023-06-19T01:47:54;22.30;1.00
3566;DHT22;1797;51.844;7.684;2023-06-19T01:50:21;22.30;1.00
3566;DHT22;1797;51.844;7.684;2023-06-19T01:52:48;22.30;1.00
3566;DHT22;1797;51.844;7.684;2023-06-19T01:55:14;22.30;1.00
3566;DHT22;1797;51.844;7.684;2023-06-19T01:57:39;22.30;1.00
3566;DHT22;1797;51.844;7.684;2023-06-19T02:00:06;22.20;1.00
3566;DHT22;1797;51.844;7.684;2023-06-19T02:02:36;22.20;1.00
3566;DHT22;1797;51.844;7.684;2023-06-19T02:05:02;22.20;1.00
3566;DHT22;1797;51.844;7.684;2023-06-19T02:07:27;22.20;1.00
3566;DHT22;1797;51.844;7.684;2023-06-19T02:09:53;22.20;1.00
3566;DHT22;1797;51.844;7.684;2023-06-19T02:12:19;22.10;1.00
3566;DHT22;1797;51.844;7.684;2023-06-19T02:14:44;22.10;1.00
3566;DHT22;1797;51.844;7.684;2023-06-19T02:17:10;22.10;1.00
3566;DHT22;1797;51.844;7.684;2023-06-19T02:19:35;22.10;1.00
3566;DHT22;1797;51.844;7.684;2023-06-19T02:22:01;22.10;1.00
3566;DHT22;1797;51.844;7.684;2023-06-19T02:24:27;22.10;1.00
3566;DHT22;1797;51.844;7.684;2023-06-19T02:26:52;22.10;1.00
3566;DHT22;1797;51.844;7.684;2023-06-19T02:29:18;22.10;1.00
3566;DHT22;1797;51.844;7.684;2023-06-19T02:31:44;22.10;1.00
3566;DHT22;1797;51.844;7.684;2023-06-19T02:34:10;22.10;1.00
3566;DHT22;1797;51.844;7.684;2023-06-19T02:36:35;22.10;1.00
3566;DHT22;1797;51.844;7.684;2023-06-19T02:39:04;22.10;1.00
3566;DHT22;1797;51.844;7.684;2023-06-19T02:41:29;22.00;1.00
3566;DHT22;1797;51.844;7.684;2023-06-19T02:43:55;22.00;1.00
3566;DHT22;1797;51.844;7.684;2023-06-19T02:46:20;22.00;1.00
3566;DHT22;1797;51.844;7.684;2023-06-19T02:48:46;22.00;1.00
3566;DHT22;1797;51.844;7.684;2023-06-19T02:51:11;22.00;1.00
3566;DHT22;1797;51.844;7.684;2023-06-19T02:53:37;22.00;1.00
3566;DHT22;1797;51.844;7.684;2023-06-19T02:56:03;22.00;1.00
3566;DHT22;1797;51.844;7.684;2023-06-19T02:58:29;22.00;1.00
3566;DHT22;1797;51.844;7.684;2023-06-19T03:00:54;21.90;1.00
3566;DHT22;1797;51.844;7.684;2023-06-19T03:03:20;22.00;1.00
3566;DHT22;1797;51.844;7.684;2023-06-19T03:05:45;21.90;1.00
3566;DHT22;1797;51.844;7.684;2023-06-19T03:08:11;21.90;1.00
3566;DHT22;1797;51.844;7.684;2023-06-19T03:10:37;21.90;1.00
3566;DHT22;1797;51.844;7.684;2023-06-19T03:13:02;21.90;1.00
3566;DHT22;1797;51.844;7.684;2023-06-19T03:15:28;21.90;1.00
3566;DHT22;1797;51.844;7.684;2023-06-19T03:17:53;21.90;1.00
3566;DHT22;1797;51.844;7.684;2023-06-19T03:20:20;21.90;1.00
3566;DHT22;1797;51.844;7.684;2023-06-19T03:22:46;21.80;1.00
3566;DHT22;1797;51.844;7.684;2023-06-19T03:25:12;21.80;1.00
3566;DHT22;1797;51.844;7.684;2023-06-19T03:27:37;21.80;1.00
3566;DHT22;1797;51.844;7.684;2023-06-19T03:30:04;21.80;1.00
3566;DHT22;1797;51.844;7.684;2023-06-19T03:32:34;21.70;1.00
3566;DHT22;1797;51.844;7.684;2023-06-19T03:35:00;21.70;1.00
3566;DHT22;1797;51.844;7.684;2023-06-19T03:37:26;21.70;1.00
3566;DHT22;1797;51.844;7.684;2023-06-19T03:39:51;21.70;1.00
3566;DHT22;1797;51.844;7.684;2023-06-19T03:42:17;21.70;1.00
3566;DHT22;1797;51.844;7.684;2023-06-19T03:44:42;21.60;1.00
3566;DHT22;1797;51.844;7.684;2023-06-19T03:47:08;21.70;1.00
3566;DHT22;1797;51.844;7.684;2023-06-19T03:49:34;21.70;1.00
3566;DHT22;1797;51.844;7.684;2023-06-19T03:51:59;21.70;1.00
3566;DHT22;1797;51.844;7.684;2023-06-19T03:54:25;21.70;1.00
3566;DHT22;1797;51.844;7.684;2023-06-19T03:56:51;21.70;1.00
3566;DHT22;1797;51.844;7.684;2023-06-19T03:59:17;21.70;1.00
3566;DHT22;1797;51.844;7.684;2023-06-19T04:01:43;21.60;1.00
3566;DHT22;1797;51.844;7.684;2023-06-19T04:04:08;21.50;1.00
3566;DHT22;1797;51.844;7.684;2023-06-19T04:06:34;21.50;1.00
3566;DHT22;1797;51.844;7.684;2023-06-19T04:09:00;21.40;1.00
3566;DHT22;1797;51.844;7.684;2023-06-19T04:11:25;21.30;1.00
3566;DHT22;1797;51.844;7.684;2023-06-19T04:13:51;21.30;1.00
3566;DHT22;1797;51.844;7.684;2023-06-19T04:16:16;21.30;1.00
3566;DHT22;1797;51.844;7.684;2023-06-19T04:18:42;21.30;1.00
3566;DHT22;1797;51.844;7.684;2023-06-19T04:21:07;21.40;1.00
3566;DHT22;1797;51.844;7.684;2023-06-19T04:23:33;21.30;1.00
3566;DHT22;1797;51.844;7.684;2023-06-19T04:25:59;21.30;1.00
3566;DHT22;1797;51.844;7.684;2023-06-19T04:28:24;21.40;1.00
3566;DHT22;1797;51.844;7.684;2023-06-19T04:30:51;21.40;1.00
3566;DHT22;1797;51.844;7.684;2023-06-19T04:33:28;21.50;1.00
3566;DHT22;1797;51.844;7.684;2023-06-19T04:35:55;21.50;1.00
3566;DHT22;1797;51.844;7.684;2023-06-19T04:38:20;21.50;1.00
3566;DHT22;1797;51.844;7.684;2023-06-19T04:40:50;21.60;1.00
3566;DHT22;1797;51.844;7.684;2023-06-19T04:43:16;21.60;1.00
3566;DHT22;1797;51.844;7.684;2023-06-19T04:45:41;21.50;1.00
3566;DHT22;1797;51.844;7.684;2023-06-19T04:48:07;21.60;1.00
3566;DHT22;1797;51.844;7.684;2023-06-19T04:50:33;21.60;1.00
3566;DHT22;1797;51.844;7.684;2023-06-19T04:52:59;21.60;1.00
3566;DHT22;1797;51.844;7.684;2023-06-19T04:55:25;21.60;1.00
3566;DHT22;1797;51.844;7.684;2023-06-19T04:57:53;21.60;1.00
3566;DHT22;1797;51.844;7.684;2023-06-19T05:00:20;21.60;1.00
3566;DHT22;1797;51.844;7.684;2023-06-19T05:02:49;21.70;1.00
3566;DHT22;1797;51.844;7.684;2023-06-19T05:05:15;21.70;1.00
3566;DHT22;1797;51.844;7.684;2023-06-19T05:07:41;21.80;1.00
3566;DHT22;1797;51.844;7.684;2023-06-19T05:10:06;21.80;1.00
3566;DHT22;1797;51.844;7.684;2023-06-19T05:12:34;21.80;1.00
3566;DHT22;1797;51.844;7.684;2023-06-19T05:15:00;21.80;1.00
3566;DHT22;1797;51.844;7.684;2023-06-19T05:17:25;21.80;1.00
3566;DHT22;1797;51.844;7.684;2023-06-19T05:19:51;21.80;1.00
3566;DHT22;1797;51.844;7.684;2023-06-19T05:22:16;21.90;1.00
3566;DHT22;1797;51.844;7.684;2023-06-19T05:24:44;21.80;1.00
3566;DHT22;1797;51.844;7.684;2023-06-19T05:27:10;21.90;1.00
3566;DHT22;1797;51.844;7.684;2023-06-19T05:29:36;21.90;1.00
3566;DHT22;1797;51.844;7.684;2023-06-19T05:32:01;22.00;1.00
3566;DHT22;1797;51.844;7.684;2023-06-19T05:34:27;22.10;1.00
3566;DHT22;1797;51.844;7.684;2023-06-19T05:36:53;22.10;1.00
3566;DHT22;1797;51.844;7.684;2023-06-19T05:39:18;22.20;1.00
3566;DHT22;1797;51.844;7.684;2023-06-19T05:41:44;22.10;1.00
3566;DHT22;1797;51.844;7.684;2023-06-19T05:44:11;22.10;1.00
3566;DHT22;1797;51.844;7.684;2023-06-19T05:46:41;22.20;1.00
3566;DHT22;1797;51.844;7.684;2023-06-19T05:49:07;22.20;1.00
3566;DHT22;1797;51.844;7.684;2023-06-19T05:51:32;22.20;1.00
3566;DHT22;1797;51.844;7.684;2023-06-19T05:53:59;22.30;1.00
3566;DHT22;1797;51.844;7.684;2023-06-19T05:56:32;22.40;1.00
3566;DHT22;1797;51.844;7.684;2023-06-19T05:58:59;22.40;1.00
3566;DHT22;1797;51.844;7.684;2023-06-19T06:01:25;22.40;1.00
3566;DHT22;1797;51.844;7.684;2023-06-19T06:03:53;22.40;1.00
3566;DHT22;1797;51.844;7.684;2023-06-19T06:06:19;22.40;1.00
3566;DHT22;1797;51.844;7.684;2023-06-19T06:08:45;22.50;1.00
3566;DHT22;1797;51.844;7.684;2023-06-19T06:11:11;22.50;1.00
3566;DHT22;1797;51.844;7.684;2023-06-19T06:13:36;22.60;1.00
3566;DHT22;1797;51.844;7.684;2023-06-19T06:16:02;22.60;1.00
3566;DHT22;1797;51.844;7.684;2023-06-19T06:18:27;22.60;1.00
3566;DHT22;1797;51.844;7.684;2023-06-19T06:20:53;22.60;1.00
3566;DHT22;1797;51.844;7.684;2023-06-19T06:23:18;22.50;1.00
3566;DHT22;1797;51.844;7.684;2023-06-19T06:25:44;22.70;1.00
3566;DHT22;1797;51.844;7.684;2023-06-19T06:28:11;22.80;1.00
3566;DHT22;1797;51.844;7.684;2023-06-19T06:30:37;22.90;1.00
3566;DHT22;1797;51.844;7.684;2023-06-19T06:33:04;23.10;1.00
3566;DHT22;1797;51.844;7.684;2023-06-19T06:35:30;23.10;1.00
3566;DHT22;1797;51.844;7.684;2023-06-19T06:37:55;23.30;1.00
3566;DHT22;1797;51.844;7.684;2023-06-19T06:40:21;23.50;1.00
3566;DHT22;1797;51.844;7.684;2023-06-19T06:42:46;23.50;1.00
3566;DHT22;1797;51.844;7.684;2023-06-19T06:45:12;23.60;1.00
3566;DHT22;1797;51.844;7.684;2023-06-19T06:47:39;23.80;1.00
3566;DHT22;1797;51.844;7.684;2023-06-19T06:50:06;23.70;1.00
3566;DHT22;1797;51.844;7.684;2023-06-19T06:52:32;23.60;1.00
3566;DHT22;1797;51.844;7.684;2023-06-19T06:54:57;23.50;1.00
3566;DHT22;1797;51.844;7.684;2023-06-19T06:57:23;23.30;1.00
3566;DHT22;1797;51.844;7.684;2023-06-19T06:59:49;23.00;1.00
3566;DHT22;1797;51.844;7.684;2023-06-19T07:02:14;22.90;1.00
3566;DHT22;1797;51.844;7.684;2023-06-19T07:04:40;22.90;1.00
3566;DHT22;1797;51.844;7.684;2023-06-19T07:07:05;22.80;1.00
3566;DHT22;1797;51.844;7.684;2023-06-19T07:09:32;22.70;1.00
3566;DHT22;1797;51.844;7.684;2023-06-19T07:11:58;22.90;1.00
3566;DHT22;1797;51.844;7.684;2023-06-19T07:14:24;22.80;1.00
3566;DHT22;1797;51.844;7.684;2023-06-19T07:16:49;22.90;1.00
3566;DHT22;1797;51.844;7.684;2023-06-19T07:19:15;22.80;1.00
3566;DHT22;1797;51.844;7.684;2023-06-19T07:21:41;22.90;1.00
3566;DHT22;1797;51.844;7.684;2023-06-19T07:24:07;23.10;1.00
3566;DHT22;1797;51.844;7.684;2023-06-19T07:26:33;23.30;1.00
3566;DHT22;1797;51.844;7.684;2023-06-19T07:28:59;23.50;1.00
3566;DHT22;1797;51.844;7.684;2023-06-19T07:31:25;23.60;1.00
3566;DHT22;1797;51.844;7.684;2023-06-19T07:33:50;24.30;1.00
3566;DHT22;1797;51.844;7.684;2023-06-19T07:36:16;24.80;1.00
3566;DHT22;1797;51.844;7.684;2023-06-19T07:38:42;25.20;1.00
3566;DHT22;1797;51.844;7.684;2023-06-19T07:41:08;25.20;1.00
3566;DHT22;1797;51.844;7.684;2023-06-19T07:43:35;25.00;1.00
3566;DHT22;1797;51.844;7.684;2023-06-19T07:46:01;24.90;1.00
3566;DHT22;1797;51.844;7.684;2023-06-19T07:48:27;24.70;1.00
3566;DHT22;1797;51.844;7.684;2023-06-19T07:50:53;24.10;1.00
3566;DHT22;1797;51.844;7.684;2023-06-19T07:53:19;25.90;1.00
3566;DHT22;1797;51.844;7.684;2023-06-19T07:55:45;25.00;1.00
3566;DHT22;1797;51.844;7.684;2023-06-19T07:58:10;24.80;1.00
3566;DHT22;1797;51.844;7.684;2023-06-19T08:00:36;25.10;1.00
3566;DHT22;1797;51.844;7.684;2023-06-19T08:03:02;25.10;1.00
3566;DHT22;1797;51.844;7.684;2023-06-19T08:05:27;25.40;1.00
3566;DHT22;1797;51.844;7.684;2023-06-19T08:07:53;25.70;1.00
3566;DHT22;1797;51.844;7.684;2023-06-19T08:10:18;25.90;1.00
3566;DHT22;1797;51.844;7.684;2023-06-19T08:12:44;26.00;1.00
3566;DHT22;1797;51.844;7.684;2023-06-19T08:15:11;26.20;1.00
3566;DHT22;1797;51.844;7.684;2023-06-19T08:17:37;26.20;1.00
3566;DHT22;1797;51.844;7.684;2023-06-19T08:20:02;26.90;1.00
3566;DHT22;1797;51.844;7.684;2023-06-19T08:22:31;26.20;1.00
3566;DHT22;1797;51.844;7.684;2023-06-19T08:24:57;26.20;1.00
3566;DHT22;1797;51.844;7.684;2023-06-19T08:27:22;26.20;1.00
3566;DHT22;1797;51.844;7.684;2023-06-19T08:29:48;26.40;1.00
3566;DHT22;1797;51.844;7.684;2023-06-19T08:32:13;26.30;1.00
3566;DHT22;1797;51.844;7.684;2023-06-19T08:34:39;26.10;1.00
3566;DHT22;1797;51.844;7.684;2023-06-19T08:37:05;26.30;1.00
3566;DHT22;1797;51.844;7.684;2023-06-19T08:39:31;26.20;1.00
3566;DHT22;1797;51.844;7.684;2023-06-19T08:41:57;26.30;1.00
3566;DHT22;1797;51.844;7.684;2023-06-19T08:44:22;26.10;1.00
3566;DHT22;1797;51.844;7.684;2023-06-19T08:46:48;25.70;1.00
3566;DHT22;1797;51.844;7.684;2023-06-19T08:49:14;25.40;1.00
3566;DHT22;1797;51.844;7.684;2023-06-19T08:51:40;25.20;1.00
3566;DHT22;1797;51.844;7.684;2023-06-19T08:54:07;24.90;1.00
3566;DHT22;1797;51.844;7.684;2023-06-19T08:56:34;24.60;1.00
3566;DHT22;1797;51.844;7.684;2023-06-19T08:59:17;24.40;1.00
3566;DHT22;1797;51.844;7.684;2023-06-19T09:01:51;24.30;1.00
3566;DHT22;1797;51.844;7.684;2023-06-19T09:04:21;24.20;1.00
3566;DHT22;1797;51.844;7.684;2023-06-19T09:06:55;24.30;1.00
3566;DHT22;1797;51.844;7.684;2023-06-19T09:09:22;24.30;1.00
3566;DHT22;1797;51.844;7.684;2023-06-19T09:11:59;24.40;1.00
3566;DHT22;1797;51.844;7.684;2023-06-19T09:14:36;24.40;1.00
3566;DHT22;1797;51.844;7.684;2023-06-19T09:19:30;24.80;1.00
3566;DHT22;1797;51.844;7.684;2023-06-19T09:22:04;24.40;1.00
3566;DHT22;1797;51.844;7.684;2023-06-19T09:24:40;24.90;1.00
3566;DHT22;1797;51.844;7.684;2023-06-19T09:27:08;24.80;1.00
3566;DHT22;1797;51.844;7.684;2023-06-19T09:29:37;25.10;1.00
3566;DHT22;1797;51.844;7.684;2023-06-19T09:32:20;25.40;1.00
3566;DHT22;1797;51.844;7.684;2023-06-19T09:34:47;25.60;1.00
3566;DHT22;1797;51.844;7.684;2023-06-19T09:37:14;25.70;1.00
3566;DHT22;1797;51.844;7.684;2023-06-19T09:39:40;25.80;1.00
3566;DHT22;1797;51.844;7.684;2023-06-19T09:42:07;25.60;1.00
3566;DHT22;1797;51.844;7.684;2023-06-19T09:44:41;25.50;1.00
3566;DHT22;1797;51.844;7.684;2023-06-19T09:47:15;25.50;1.00
3566;DHT22;1797;51.844;7.684;2023-06-19T09:49:49;25.60;1.00
3566;DHT22;1797;51.844;7.684;2023-06-19T09:52:15;25.70;1.00
3566;DHT22;1797;51.844;7.684;2023-06-19T09:54:42;25.60;1.00
3566;DHT22;1797;51.844;7.684;2023-06-19T09:57:10;25.40;1.00
3566;DHT22;1797;51.844;7.684;2023-06-19T09:59:37;25.30;1.00
3566;DHT22;1797;51.844;7.684;2023-06-19T10:02:04;25.10;1.00
3566;DHT22;1797;51.844;7.684;2023-06-19T10:04:59;25.00;1.00
3566;DHT22;1797;51.844;7.684;2023-06-19T10:07:26;25.40;1.00
3566;DHT22;1797;51.844;7.684;2023-06-19T10:15:10;26.00;1.00
3566;DHT22;1797;51.844;7.684;2023-06-19T10:17:38;25.50;1.00
3566;DHT22;1797;51.844;7.684;2023-06-19T10:23:12;26.10;1.00
3566;DHT22;1797;51.844;7.684;2023-06-19T10:31:06;25.50;1.00
3566;DHT22;1797;51.844;7.684;2023-06-19T10:33:35;25.30;1.00
3566;DHT22;1797;51.844;7.684;2023-06-19T10:36:17;25.50;1.00
3566;DHT22;1797;51.844;7.684;2023-06-19T10:38:43;25.70;1.00
3566;DHT22;1797;51.844;7.684;2023-06-19T10:41:23;26.00;1.00
3566;DHT22;1797;51.844;7.684;2023-06-19T10:46:34;26.00;1.00
3566;DHT22;1797;51.844;7.684;2023-06-19T10:49:01;26.20;1.00
3566;DHT22;1797;51.844;7.684;2023-06-19T10:51:30;26.30;1.00
3566;DHT22;1797;51.844;7.684;2023-06-19T10:53:57;26.10;1.00
3566;DHT22;1797;51.844;7.684;2023-06-19T10:56:23;25.90;1.00
3566;DHT22;1797;51.844;7.684;2023-06-19T10:58:57;26.00;1.00
3566;DHT22;1797;51.844;7.684;2023-06-19T11:01:22;26.50;1.00
3566;DHT22;1797;51.844;7.684;2023-06-19T11:03:48;27.10;1.00
3566;DHT22;1797;51.844;7.684;2023-06-19T11:06:19;27.20;1.00
3566;DHT22;1797;51.844;7.684;2023-06-19T11:08:51;27.50;1.00
3566;DHT22;1797;51.844;7.684;2023-06-19T11:11:17;27.60;1.00
3566;DHT22;1797;51.844;7.684;2023-06-19T11:13:43;28.10;1.00
3566;DHT22;1797;51.844;7.684;2023-06-19T11:16:08;28.50;99.90
3566;DHT22;1797;51.844;7.684;2023-06-19T11:18:35;29.00;99.90
3566;DHT22;1797;51.844;7.684;2023-06-19T11:21:02;29.50;99.90
3566;DHT22;1797;51.844;7.684;2023-06-19T11:23:29;29.70;99.90
3566;DHT22;1797;51.844;7.684;2023-06-19T11:26:04;30.10;99.90
3566;DHT22;1797;51.844;7.684;2023-06-19T11:28:31;30.10;99.90
3566;DHT22;1797;51.844;7.684;2023-06-19T11:31:02;29.70;99.90
3566;DHT22;1797;51.844;7.684;2023-06-19T11:33:28;29.80;99.90
3566;DHT22;1797;51.844;7.684;2023-06-19T11:35:55;30.00;99.90
3566;DHT22;1797;51.844;7.684;2023-06-19T11:38:25;30.20;99.90
3566;DHT22;1797;51.844;7.684;2023-06-19T11:40:52;29.60;99.90
3566;DHT22;1797;51.844;7.684;2023-06-19T11:43:31;30.60;99.90
3566;DHT22;1797;51.844;7.684;2023-06-19T11:46:07;30.70;99.90
3566;DHT22;1797;51.844;7.684;2023-06-19T11:48:38;30.70;99.90
3566;DHT22;1797;51.844;7.684;2023-06-19T11:51:04;30.30;99.90
3566;DHT22;1797;51.844;7.684;2023-06-19T11:53:30;30.00;99.90
3566;DHT22;1797;51.844;7.684;2023-06-19T11:55:56;29.90;99.90
3566;DHT22;1797;51.844;7.684;2023-06-19T11:58:21;29.80;99.90
3566;DHT22;1797;51.844;7.684;2023-06-19T12:00:48;29.80;99.90
3566;DHT22;1797;51.844;7.684;2023-06-19T12:03:14;29.50;99.90
3566;DHT22;1797;51.844;7.684;2023-06-19T12:05:39;29.40;99.90
3566;DHT22;1797;51.844;7.684;2023-06-19T12:08:05;29.20;99.90
3566;DHT22;1797;51.844;7.684;2023-06-19T12:10:35;29.50;99.90
3566;DHT22;1797;51.844;7.684;2023-06-19T12:13:00;29.90;99.90
3566;DHT22;1797;51.844;7.684;2023-06-19T12:15:26;30.40;99.90
3566;DHT22;1797;51.844;7.684;2023-06-19T12:17:52;31.30;99.90
3566;DHT22;1797;51.844;7.684;2023-06-19T12:20:18;32.60;99.90
3566;DHT22;1797;51.844;7.684;2023-06-19T12:22:45;31.30;99.90
3566;DHT22;1797;51.844;7.684;2023-06-19T12:25:11;31.10;99.90
3566;DHT22;1797;51.844;7.684;2023-06-19T12:27:39;30.70;99.90
3566;DHT22;1797;51.844;7.684;2023-06-19T12:30:06;30.80;99.90
3566;DHT22;1797;51.844;7.684;2023-06-19T12:32:33;31.30;99.90
3566;DHT22;1797;51.844;7.684;2023-06-19T12:34:58;31.60;99.90
3566;DHT22;1797;51.844;7.684;2023-06-19T12:37:24;31.70;99.90
3566;DHT22;1797;51.844;7.684;2023-06-19T12:39:50;31.60;99.90
3566;DHT22;1797;51.844;7.684;2023-06-19T12:47:12;31.10;99.90
3566;DHT22;1797;51.844;7.684;2023-06-19T12:49:37;31.00;99.90
3566;DHT22;1797;51.844;7.684;2023-06-19T12:52:03;31.20;99.90
3566;DHT22;1797;51.844;7.684;2023-06-19T12:54:29;31.60;99.90
3566;DHT22;1797;51.844;7.684;2023-06-19T12:56:54;31.70;99.90
3566;DHT22;1797;51.844;7.684;2023-06-19T12:59:20;31.50;99.90
3566;DHT22;1797;51.844;7.684;2023-06-19T13:01:46;31.40;99.90
3566;DHT22;1797;51.844;7.684;2023-06-19T13:04:12;31.30;99.90
3566;DHT22;1797;51.844;7.684;2023-06-19T13:06:38;31.30;99.90
3566;DHT22;1797;51.844;7.684;2023-06-19T13:09:04;31.00;99.90
3566;DHT22;1797;51.844;7.684;2023-06-19T13:11:30;30.80;99.90
3566;DHT22;1797;51.844;7.684;2023-06-19T13:13:56;30.80;99.90
3566;DHT22;1797;51.844;7.684;2023-06-19T13:16:22;30.90;99.90
3566;DHT22;1797;51.844;7.684;2023-06-19T13:18:51;30.80;99.90
3566;DHT22;1797;51.844;7.684;2023-06-19T13:21:17;30.50;99.90
3566;DHT22;1797;51.844;7.684;2023-06-19T13:23:42;30.30;99.90
3566;DHT22;1797;51.844;7.684;2023-06-19T13:26:08;30.00;99.90
3566;DHT22;1797;51.844;7.684;2023-06-19T13:28:34;29.80;99.90
3566;DHT22;1797;51.844;7.684;2023-06-19T13:30:59;29.60;99.90
3566;DHT22;1797;51.844;7.684;2023-06-19T13:33:25;29.60;99.90
3566;DHT22;1797;51.844;7.684;2023-06-19T13:35:51;29.50;99.90
3566;DHT22;1797;51.844;7.684;2023-06-19T13:38:18;29.60;99.90
3566;DHT22;1797;51.844;7.684;2023-06-19T13:40:44;29.70;99.90
3566;DHT22;1797;51.844;7.684;2023-06-19T13:43:10;29.80;99.90
3566;DHT22;1797;51.844;7.684;2023-06-19T13:45:35;30.00;99.90
3566;DHT22;1797;51.844;7.684;2023-06-19T13:48:04;30.20;99.90
3566;DHT22;1797;51.844;7.684;2023-06-19T13:50:29;30.20;99.90
3566;DHT22;1797;51.844;7.684;2023-06-19T13:52:55;30.50;99.90
3566;DHT22;1797;51.844;7.684;2023-06-19T13:55:21;30.50;99.90
3566;DHT22;1797;51.844;7.684;2023-06-19T13:57:46;30.80;99.90
3566;DHT22;1797;51.844;7.684;2023-06-19T14:00:12;30.90;99.90
3566;DHT22;1797;51.844;7.684;2023-06-19T14:02:38;30.90;99.90
3566;DHT22;1797;51.844;7.684;2023-06-19T14:05:05;30.90;99.90
3566;DHT22;1797;51.844;7.684;2023-06-19T14:07:32;30.80;99.90
3566;DHT22;1797;51.844;7.684;2023-06-19T14:09:57;31.00;99.90
3566;DHT22;1797;51.844;7.684;2023-06-19T14:12:23;30.90;99.90
3566;DHT22;1797;51.844;7.684;2023-06-19T14:14:48;30.70;99.90
3566;DHT22;1797;51.844;7.684;2023-06-19T14:17:14;31.70;1.00
3566;DHT22;1797;51.844;7.684;2023-06-19T14:19:39;31.00;1.00
3566;DHT22;1797;51.844;7.684;2023-06-19T14:22:05;31.20;1.00
3566;DHT22;1797;51.844;7.684;2023-06-19T14:24:31;31.20;1.00
3566;DHT22;1797;51.844;7.684;2023-06-19T14:26:56;30.90;1.00
3566;DHT22;1797;51.844;7.684;2023-06-19T14:29:22;31.10;1.00
3566;DHT22;1797;51.844;7.684;2023-06-19T14:31:47;31.00;1.00
3566;DHT22;1797;51.844;7.684;2023-06-19T14:34:15;31.30;1.00
3566;DHT22;1797;51.844;7.684;2023-06-19T14:36:41;31.50;1.00
3566;DHT22;1797;51.844;7.684;2023-06-19T14:39:07;31.70;1.00
3566;DHT22;1797;51.844;7.684;2023-06-19T14:41:32;31.00;1.00
3566;DHT22;1797;51.844;7.684;2023-06-19T14:43:58;31.00;99.90
3566;DHT22;1797;51.844;7.684;2023-06-19T14:46:24;30.90;1.00
3566;DHT22;1797;51.844;7.684;2023-06-19T14:48:49;31.10;1.00
3566;DHT22;1797;51.844;7.684;2023-06-19T14:51:15;31.10;1.00
3566;DHT22;1797;51.844;7.684;2023-06-19T14:53:40;31.10;1.00
3566;DHT22;1797;51.844;7.684;2023-06-19T14:56:06;30.80;1.00
3566;DHT22;1797;51.844;7.684;2023-06-19T14:58:32;30.70;1.00
3566;DHT22;1797;51.844;7.684;2023-06-19T15:00:57;30.60;1.00
3566;DHT22;1797;51.844;7.684;2023-06-19T15:03:23;30.60;1.00
3566;DHT22;1797;51.844;7.684;2023-06-19T15:05:49;30.60;1.00
3566;DHT22;1797;51.844;7.684;2023-06-19T15:08:14;30.80;1.00
3566;DHT22;1797;51.844;7.684;2023-06-19T15:10:46;30.90;10.50
3566;DHT22;1797;51.844;7.684;2023-06-19T15:13:12;30.90;99.90
3566;DHT22;1797;51.844;7.684;2023-06-19T15:15:37;31.20;1.00
3566;DHT22;1797;51.844;7.684;2023-06-19T15:18:03;31.40;1.00
3566;DHT22;1797;51.844;7.684;2023-06-19T15:20:29;31.10;1.00
3566;DHT22;1797;51.844;7.684;2023-06-19T15:22:54;30.60;1.00
3566;DHT22;1797;51.844;7.684;2023-06-19T15:25:20;30.40;1.00
3566;DHT22;1797;51.844;7.684;2023-06-19T15:27:45;30.40;22.70
3566;DHT22;1797;51.844;7.684;2023-06-19T15:30:11;30.40;1.00
3566;DHT22;1797;51.844;7.684;2023-06-19T15:32:37;30.40;1.00
3566;DHT22;1797;51.844;7.684;2023-06-19T15:35:03;30.40;1.00
3566;DHT22;1797;51.844;7.684;2023-06-19T15:37:28;30.60;1.00
3566;DHT22;1797;51.844;7.684;2023-06-19T15:39:54;30.90;1.00
3566;DHT22;1797;51.844;7.684;2023-06-19T15:42:20;31.10;1.00
3566;DHT22;1797;51.844;7.684;2023-06-19T15:44:45;31.20;1.00
3566;DHT22;1797;51.844;7.684;2023-06-19T15:47:11;31.10;1.00
3566;DHT22;1797;51.844;7.684;2023-06-19T15:49:36;30.80;1.00
3566;DHT22;1797;51.844;7.684;2023-06-19T15:52:04;30.40;1.00
3566;DHT22;1797;51.844;7.684;2023-06-19T15:54:29;30.20;1.00
3566;DHT22;1797;51.844;7.684;2023-06-19T15:56:55;30.40;92.10
3566;DHT22;1797;51.844;7.684;2023-06-19T15:59:21;30.60;81.90
3566;DHT22;1797;51.844;7.684;2023-06-19T16:01:46;30.60;37.70
3566;DHT22;1797;51.844;7.684;2023-06-19T16:04:12;30.90;99.90
3566;DHT22;1797;51.844;7.684;2023-06-19T16:06:37;31.00;22.50
3566;DHT22;1797;51.844;7.684;2023-06-19T16:09:05;31.40;99.90
3566;DHT22;1797;51.844;7.684;2023-06-19T16:11:30;31.50;53.60
3566;DHT22;1797;51.844;7.684;2023-06-19T16:13:56;31.10;99.90
3566;DHT22;1797;51.844;7.684;2023-06-19T16:16:22;31.00;11.70
3566;DHT22;1797;51.844;7.684;2023-06-19T16:18:47;30.90;1.00
3566;DHT22;1797;51.844;7.684;2023-06-19T16:21:13;30.50;1.00
3566;DHT22;1797;51.844;7.684;2023-06-19T16:23:40;30.50;1.00
3566;DHT22;1797;51.844;7.684;2023-06-19T16:26:06;30.70;99.90
3566;DHT22;1797;51.844;7.684;2023-06-19T16:28:31;31.00;1.20
3566;DHT22;1797;51.844;7.684;2023-06-19T16:30:57;30.60;11.90
3566;DHT22;1797;51.844;7.684;2023-06-19T16:33:23;29.60;1.00
3566;DHT22;1797;51.844;7.684;2023-06-19T16:38:15;30.60;1.00